Station Historical Data
Daily Summary for June 1, 2012 Units:  Both    English   Metric
« Previous Day
Next Day »
Daily Weekly Monthly Yearly Custom
  High: Low: Average:
Temperature: 66.2 °F /  19 °C 54.0 °F /  12.2 °C 61.5 °F /  16.4 °C
Dew Point: 64.1 °F /  17.8 °C 52.3 °F /  11.3 °C 56.5 °F /  13.6 °C
Humidity: 95% 65% 84%
Wind Speed: 15.0mph /  24.1km/h - 4.6mph /  7.4km/h
Wind Gust: 18.0mph /  29km/h - -
Wind- - West
Pressure: 29.92 in /  1013.1 hPa 29.67 in /  1004.6 hPa -
Precipitation: 0.05 in /  1.27 mm    
Historical Graphs
 
 
Tabular Data for June 1, 2012
Time Temperature Dew Point Pressure Wind Wind Speed Wind Gust Humidity Rainfall Rate (Hourly) Conditions
00:00 65.5 °F /  18.6 °C 62.5 °F /  16.9 °C 29.70in /  1005.6hPa SSE 2.0mph /  3.2km/h 6.0mph /  9.7km/h 90% 0.00in /  0mm
00:05 65.5 °F /  18.6 °C 62.5 °F /  16.9 °C 29.71in /  1006hPa SSE 1.0mph /  1.6km/h 3.0mph /  4.8km/h 90% 0.00in /  0mm
00:10 65.5 °F /  18.6 °C 62.5 °F /  16.9 °C 29.71in /  1006hPa West 1.0mph /  1.6km/h 2.0mph /  3.2km/h 90% 0.00in /  0mm
00:15 65.6 °F /  18.7 °C 62.9 °F /  17.2 °C 29.71in /  1006hPa Calm   2.0mph /  3.2km/h 91% 0.00in /  0mm
00:20 65.6 °F /  18.7 °C 62.9 °F /  17.2 °C 29.72in /  1006.3hPa SSW 1.0mph /  1.6km/h 2.0mph /  3.2km/h 91% 0.00in /  0mm
00:25 65.7 °F /  18.7 °C 63.0 °F /  17.2 °C 29.72in /  1006.3hPa WSW 1.0mph /  1.6km/h 2.0mph /  3.2km/h 91% 0.00in /  0mm
00:31 65.7 °F /  18.7 °C 63.0 °F /  17.2 °C 29.73in /  1006.7hPa Calm   1.0mph /  1.6km/h 91% 0.00in /  0mm
00:36 65.6 °F /  18.7 °C 62.9 °F /  17.2 °C 29.73in /  1006.7hPa Calm     91% 0.00in /  0mm
00:41 65.6 °F /  18.7 °C 62.9 °F /  17.2 °C 29.73in /  1006.7hPa West 1.0mph /  1.6km/h 2.0mph /  3.2km/h 91% 0.00in /  0mm
00:46 65.6 °F /  18.7 °C 62.9 °F /  17.2 °C 29.73in /  1006.7hPa West 1.0mph /  1.6km/h 3.0mph /  4.8km/h 91% 0.00in /  0mm
00:51 65.6 °F /  18.7 °C 62.9 °F /  17.2 °C 29.73in /  1006.7hPa SW 3.0mph /  4.8km/h 3.0mph /  4.8km/h 91% 0.00in /  0mm
00:56 65.6 °F /  18.7 °C 62.9 °F /  17.2 °C 29.73in /  1006.7hPa SW 2.0mph /  3.2km/h 3.0mph /  4.8km/h 91% 0.00in /  0mm
01:01 65.6 °F /  18.7 °C 62.9 °F /  17.2 °C 29.72in /  1006.3hPa SSW 1.0mph /  1.6km/h 3.0mph /  4.8km/h 91% 0.00in /  0mm
01:06 65.5 °F /  18.6 °C 63.1 °F /  17.3 °C 29.72in /  1006.3hPa SW 2.0mph /  3.2km/h 3.0mph /  4.8km/h 92% 0.00in /  0mm
01:11 65.6 °F /  18.7 °C 63.2 °F /  17.3 °C 29.72in /  1006.3hPa SW 3.0mph /  4.8km/h 5.0mph /  8km/h 92% 0.00in /  0mm
01:16 65.6 °F /  18.7 °C 63.2 °F /  17.3 °C 29.71in /  1006hPa SSE 1.0mph /  1.6km/h 2.0mph /  3.2km/h 92% 0.00in /  0mm
01:21 65.6 °F /  18.7 °C 63.2 °F /  17.3 °C 29.72in /  1006.3hPa SW 2.0mph /  3.2km/h 5.0mph /  8km/h 92% 0.00in /  0mm
01:26 65.6 °F /  18.7 °C 62.9 °F /  17.2 °C 29.71in /  1006hPa SSW 2.0mph /  3.2km/h 5.0mph /  8km/h 91% 0.00in /  0mm
01:31 65.6 °F /  18.7 °C 62.9 °F /  17.2 °C 29.71in /  1006hPa WSW 3.0mph /  4.8km/h 5.0mph /  8km/h 91% 0.00in /  0mm
01:36 65.6 °F /  18.7 °C 62.9 °F /  17.2 °C 29.71in /  1006hPa SSW 2.0mph /  3.2km/h 5.0mph /  8km/h 91% 0.00in /  0mm
01:41 65.6 °F /  18.7 °C 62.9 °F /  17.2 °C 29.70in /  1005.6hPa SSW 4.0mph /  6.4km/h 7.0mph /  11.3km/h 91% 0.00in /  0mm
01:46 65.6 °F /  18.7 °C 62.9 °F /  17.2 °C 29.70in /  1005.6hPa SW 2.0mph /  3.2km/h 7.0mph /  11.3km/h 91% 0.00in /  0mm
01:51 65.6 °F /  18.7 °C 62.9 °F /  17.2 °C 29.70in /  1005.6hPa WSW 3.0mph /  4.8km/h 5.0mph /  8km/h 91% 0.00in /  0mm
01:56 65.6 °F /  18.7 °C 62.9 °F /  17.2 °C 29.70in /  1005.6hPa SW 4.0mph /  6.4km/h 5.0mph /  8km/h 91% 0.00in /  0mm
02:01 65.6 °F /  18.7 °C 62.9 °F /  17.2 °C 29.70in /  1005.6hPa SSW 5.0mph /  8km/h 6.0mph /  9.7km/h 91% 0.00in /  0mm
02:06 65.6 °F /  18.7 °C 62.9 °F /  17.2 °C 29.69in /  1005.3hPa SSW 1.0mph /  1.6km/h 3.0mph /  4.8km/h 91% 0.00in /  0mm
02:11 65.6 °F /  18.7 °C 62.9 °F /  17.2 °C 29.69in /  1005.3hPa SW 3.0mph /  4.8km/h 4.0mph /  6.4km/h 91% 0.00in /  0mm
02:16 65.5 °F /  18.6 °C 63.1 °F /  17.3 °C 29.69in /  1005.3hPa WSW 2.0mph /  3.2km/h 3.0mph /  4.8km/h 92% 0.00in /  0mm
02:21 65.5 °F /  18.6 °C 63.1 °F /  17.3 °C 29.69in /  1005.3hPa SSW 3.0mph /  4.8km/h 4.0mph /  6.4km/h 92% 0.00in /  0mm
02:26 65.5 °F /  18.6 °C 63.1 °F /  17.3 °C 29.69in /  1005.3hPa SSW 2.0mph /  3.2km/h 4.0mph /  6.4km/h 92% 0.00in /  0mm
02:31 65.5 °F /  18.6 °C 63.1 °F /  17.3 °C 29.69in /  1005.3hPa SSW 1.0mph /  1.6km/h 3.0mph /  4.8km/h 92% 0.00in /  0mm
02:36 65.4 °F /  18.6 °C 63.0 °F /  17.2 °C 29.69in /  1005.3hPa SSE 3.0mph /  4.8km/h 3.0mph /  4.8km/h 92% 0.00in /  0mm
02:41 65.4 °F /  18.6 °C 63.0 °F /  17.2 °C 29.69in /  1005.3hPa SW 4.0mph /  6.4km/h 4.0mph /  6.4km/h 92% 0.00in /  0mm
02:46 65.4 °F /  18.6 °C 63.0 °F /  17.2 °C 29.68in /  1005hPa SSE 3.0mph /  4.8km/h 4.0mph /  6.4km/h 92% 0.00in /  0mm
02:51 65.4 °F /  18.6 °C 63.0 °F /  17.2 °C 29.68in /  1005hPa SSW 2.0mph /  3.2km/h 5.0mph /  8km/h 92% 0.00in /  0mm
02:56 65.4 °F /  18.6 °C 63.0 °F /  17.2 °C 29.69in /  1005.3hPa SW 3.0mph /  4.8km/h 5.0mph /  8km/h 92% 0.00in /  0mm
03:01 65.5 °F /  18.6 °C 63.1 °F /  17.3 °C 29.68in /  1005hPa SW 7.0mph /  11.3km/h 7.0mph /  11.3km/h 92% 0.00in /  0mm
03:06 65.6 °F /  18.7 °C 63.2 °F /  17.3 °C 29.69in /  1005.3hPa SW 3.0mph /  4.8km/h 8.0mph /  12.9km/h 92% 0.00in /  0mm
03:11 65.6 °F /  18.7 °C 63.2 °F /  17.3 °C 29.68in /  1005hPa SW 7.0mph /  11.3km/h 8.0mph /  12.9km/h 92% 0.00in /  0mm
03:16 65.7 °F /  18.7 °C 63.3 °F /  17.4 °C 29.68in /  1005hPa SSW 1.0mph /  1.6km/h 8.0mph /  12.9km/h 92% 0.00in /  0mm
03:22 65.8 °F /  18.8 °C 63.7 °F /  17.6 °C 29.68in /  1005hPa SW 5.0mph /  8km/h 7.0mph /  11.3km/h 93% 0.00in /  0mm
03:27 65.8 °F /  18.8 °C 63.4 °F /  17.4 °C 29.68in /  1005hPa SSW 4.0mph /  6.4km/h 7.0mph /  11.3km/h 92% 0.00in /  0mm
03:32 65.9 °F /  18.8 °C 63.8 °F /  17.7 °C 29.68in /  1005hPa SW 7.0mph /  11.3km/h 9.0mph /  14.5km/h 93% 0.00in /  0mm
03:37 65.9 °F /  18.8 °C 63.8 °F /  17.7 °C 29.68in /  1005hPa SSW 5.0mph /  8km/h 7.0mph /  11.3km/h 93% 0.00in /  0mm
03:42 66.0 °F /  18.9 °C 63.9 °F /  17.7 °C 29.68in /  1005hPa SW 5.0mph /  8km/h 11.0mph /  17.7km/h 93% 0.00in /  0mm
03:47 66.0 °F /  18.9 °C 63.9 °F /  17.7 °C 29.68in /  1005hPa South 7.0mph /  11.3km/h 10.0mph /  16.1km/h 93% 0.00in /  0mm
03:52 66.1 °F /  18.9 °C 64.0 °F /  17.8 °C 29.67in /  1004.6hPa SSW 8.0mph /  12.9km/h 11.0mph /  17.7km/h 93% 0.00in /  0mm
03:57 66.2 °F /  19 °C 64.1 °F /  17.8 °C 29.68in /  1005hPa WSW 3.0mph /  4.8km/h 8.0mph /  12.9km/h 93% 0.00in /  0mm
04:02 66.2 °F /  19 °C 64.1 °F /  17.8 °C 29.68in /  1005hPa WSW 4.0mph /  6.4km/h 9.0mph /  14.5km/h 93% 0.00in /  0mm
04:07 66.2 °F /  19 °C 64.1 °F /  17.8 °C 29.67in /  1004.6hPa WSW 6.0mph /  9.7km/h 8.0mph /  12.9km/h 93% 0.00in /  0mm
04:12 66.2 °F /  19 °C 64.1 °F /  17.8 °C 29.67in /  1004.6hPa SW 6.0mph /  9.7km/h 10.0mph /  16.1km/h 93% 0.00in /  0mm
04:17 66.1 °F /  18.9 °C 64.0 °F /  17.8 °C 29.67in /  1004.6hPa WSW 6.0mph /  9.7km/h 10.0mph /  16.1km/h 93% 0.00in /  0mm
04:22 66.0 °F /  18.9 °C 63.9 °F /  17.7 °C 29.68in /  1005hPa WSW 6.0mph /  9.7km/h 9.0mph /  14.5km/h 93% 0.00in /  0mm
04:27 65.9 °F /  18.8 °C 63.8 °F /  17.7 °C 29.68in /  1005hPa SW 5.0mph /  8km/h 7.0mph /  11.3km/h 93% 0.00in /  0mm
04:32 65.9 °F /  18.8 °C 64.1 °F /  17.8 °C 29.68in /  1005hPa WSW 5.0mph /  8km/h 7.0mph /  11.3km/h 94% 0.00in /  0mm
04:37 65.8 °F /  18.8 °C 64.0 °F /  17.8 °C 29.68in /  1005hPa WSW 2.0mph /  3.2km/h 6.0mph /  9.7km/h 94% 0.00in /  0mm
04:42 65.8 °F /  18.8 °C 64.0 °F /  17.8 °C 29.68in /  1005hPa WSW 3.0mph /  4.8km/h 8.0mph /  12.9km/h 94% 0.00in /  0mm
04:47 65.8 °F /  18.8 °C 64.0 °F /  17.8 °C 29.67in /  1004.6hPa WSW 3.0mph /  4.8km/h 9.0mph /  14.5km/h 94% 0.00in /  0mm
04:52 65.7 °F /  18.7 °C 63.9 °F /  17.7 °C 29.68in /  1005hPa WSW 5.0mph /  8km/h 7.0mph /  11.3km/h 94% 0.09in /  2.29mm
04:57 65.6 °F /  18.7 °C 63.8 °F /  17.7 °C 29.68in /  1005hPa NW 10.0mph /  16.1km/h 18.0mph /  29km/h 94% 0.47in /  11.94mm
05:02 63.5 °F /  17.5 °C 61.1 °F /  16.2 °C 29.69in /  1005.3hPa NW 15.0mph /  24.1km/h 16.0mph /  25.7km/h 92% 0.10in /  2.54mm
05:07 61.9 °F /  16.6 °C 59.9 °F /  15.5 °C 29.69in /  1005.3hPa NW 8.0mph /  12.9km/h 17.0mph /  27.4km/h 93% 0.10in /  2.54mm
05:12 61.2 °F /  16.2 °C 59.2 °F /  15.1 °C 29.70in /  1005.6hPa WNW 11.0mph /  17.7km/h 13.0mph /  20.9km/h 93% 0.06in /  1.52mm
05:17 60.8 °F /  16 °C 58.8 °F /  14.9 °C 29.70in /  1005.6hPa NW 8.0mph /  12.9km/h 13.0mph /  20.9km/h 93% 0.04in /  1.02mm
05:22 60.7 °F /  15.9 °C 58.7 °F /  14.8 °C 29.70in /  1005.6hPa WNW 9.0mph /  14.5km/h 11.0mph /  17.7km/h 93% 0.00in /  0mm
05:27 60.7 °F /  15.9 °C 58.7 °F /  14.8 °C 29.70in /  1005.6hPa NNW 5.0mph /  8km/h 13.0mph /  20.9km/h 93% 0.00in /  0mm
05:32 60.6 °F /  15.9 °C 58.6 °F /  14.8 °C 29.70in /  1005.6hPa NW 8.0mph /  12.9km/h 10.0mph /  16.1km/h 93% 0.00in /  0mm
05:38 60.6 °F /  15.9 °C 58.6 °F /  14.8 °C 29.70in /  1005.6hPa West 6.0mph /  9.7km/h 8.0mph /  12.9km/h 93% 0.00in /  0mm
05:43 60.5 °F /  15.8 °C 58.5 °F /  14.7 °C 29.70in /  1005.6hPa NW 3.0mph /  4.8km/h 6.0mph /  9.7km/h 93% 0.00in /  0mm
05:48 60.4 °F /  15.8 °C 58.7 °F /  14.8 °C 29.70in /  1005.6hPa NW 3.0mph /  4.8km/h 4.0mph /  6.4km/h 94% 0.00in /  0mm
05:53 60.4 °F /  15.8 °C 58.7 °F /  14.8 °C 29.70in /  1005.6hPa NW 2.0mph /  3.2km/h 5.0mph /  8km/h 94% 0.00in /  0mm
05:58 60.3 °F /  15.7 °C 58.6 °F /  14.8 °C 29.71in /  1006hPa NW 3.0mph /  4.8km/h 6.0mph /  9.7km/h 94% 0.00in /  0mm
06:03 60.3 °F /  15.7 °C 58.6 °F /  14.8 °C 29.71in /  1006hPa NW 2.0mph /  3.2km/h 6.0mph /  9.7km/h 94% 0.00in /  0mm
06:08 60.3 °F /  15.7 °C 58.6 °F /  14.8 °C 29.71in /  1006hPa WNW 4.0mph /  6.4km/h 6.0mph /  9.7km/h 94% 0.00in /  0mm
06:13 60.3 °F /  15.7 °C 58.6 °F /  14.8 °C 29.71in /  1006hPa WNW 4.0mph /  6.4km/h 5.0mph /  8km/h 94% 0.00in /  0mm
06:18 60.3 °F /  15.7 °C 58.6 °F /  14.8 °C 29.71in /  1006hPa NW 4.0mph /  6.4km/h 5.0mph /  8km/h 94% 0.00in /  0mm
06:23 60.3 °F /  15.7 °C 58.6 °F /  14.8 °C 29.71in /  1006hPa WNW 2.0mph /  3.2km/h 4.0mph /  6.4km/h 94% 0.00in /  0mm
06:28 60.3 °F /  15.7 °C 58.6 °F /  14.8 °C 29.71in /  1006hPa WNW 4.0mph /  6.4km/h 4.0mph /  6.4km/h 94% 0.00in /  0mm
06:33 60.2 °F /  15.7 °C 58.5 °F /  14.7 °C 29.72in /  1006.3hPa WNW 2.0mph /  3.2km/h 5.0mph /  8km/h 94% 0.00in /  0mm
06:38 60.2 °F /  15.7 °C 58.5 °F /  14.7 °C 29.72in /  1006.3hPa NW 3.0mph /  4.8km/h 5.0mph /  8km/h 94% 0.00in /  0mm
06:43 60.2 °F /  15.7 °C 58.5 °F /  14.7 °C 29.73in /  1006.7hPa WNW 4.0mph /  6.4km/h 6.0mph /  9.7km/h 94% 0.00in /  0mm
06:48 60.2 °F /  15.7 °C 58.5 °F /  14.7 °C 29.73in /  1006.7hPa West 7.0mph /  11.3km/h 8.0mph /  12.9km/h 94% 0.00in /  0mm
06:53 60.1 °F /  15.6 °C 58.4 °F /  14.7 °C 29.73in /  1006.7hPa WNW 5.0mph /  8km/h 8.0mph /  12.9km/h 94% 0.00in /  0mm
06:58 60.1 °F /  15.6 °C 58.4 °F /  14.7 °C 29.73in /  1006.7hPa WNW 2.0mph /  3.2km/h 7.0mph /  11.3km/h 94% 0.00in /  0mm
07:03 60.1 °F /  15.6 °C 58.4 °F /  14.7 °C 29.73in /  1006.7hPa WNW 2.0mph /  3.2km/h 6.0mph /  9.7km/h 94% 0.00in /  0mm
07:08 60.0 °F /  15.6 °C 58.3 °F /  14.6 °C 29.74in /  1007hPa WNW 6.0mph /  9.7km/h 6.0mph /  9.7km/h 94% 0.00in /  0mm
07:13 60.0 °F /  15.6 °C 58.3 °F /  14.6 °C 29.74in /  1007hPa WNW 2.0mph /  3.2km/h 6.0mph /  9.7km/h 94% 0.00in /  0mm
07:18 59.9 °F /  15.5 °C 58.2 °F /  14.6 °C 29.74in /  1007hPa WNW 5.0mph /  8km/h 8.0mph /  12.9km/h 94% 0.00in /  0mm
07:23 59.8 °F /  15.4 °C 58.1 °F /  14.5 °C 29.74in /  1007hPa WNW 4.0mph /  6.4km/h 9.0mph /  14.5km/h 94% 0.00in /  0mm
07:28 59.8 °F /  15.4 °C 57.8 °F /  14.3 °C 29.75in /  1007.3hPa WNW 4.0mph /  6.4km/h 6.0mph /  9.7km/h 93% 0.00in /  0mm
07:33 59.8 °F /  15.4 °C 57.8 °F /  14.3 °C 29.75in /  1007.3hPa WNW 4.0mph /  6.4km/h 9.0mph /  14.5km/h 93% 0.00in /  0mm
07:38 59.9 °F /  15.5 °C 57.9 °F /  14.4 °C 29.75in /  1007.3hPa WNW 3.0mph /  4.8km/h 7.0mph /  11.3km/h 93% 0.00in /  0mm
07:43 59.9 °F /  15.5 °C 57.9 °F /  14.4 °C 29.75in /  1007.3hPa WNW 5.0mph /  8km/h 6.0mph /  9.7km/h 93% 0.00in /  0mm
07:48 60.0 °F /  15.6 °C 58.0 °F /  14.4 °C 29.75in /  1007.3hPa NW 3.0mph /  4.8km/h 6.0mph /  9.7km/h 93% 0.00in /  0mm
07:53 59.9 °F /  15.5 °C 57.9 °F /  14.4 °C 29.75in /  1007.3hPa WNW 6.0mph /  9.7km/h 11.0mph /  17.7km/h 93% 0.00in /  0mm
07:58 59.9 °F /  15.5 °C 57.9 °F /  14.4 °C 29.76in /  1007.7hPa WNW 6.0mph /  9.7km/h 8.0mph /  12.9km/h 93% 0.00in /  0mm
08:03 60.0 °F /  15.6 °C 58.0 °F /  14.4 °C 29.76in /  1007.7hPa NW 4.0mph /  6.4km/h 6.0mph /  9.7km/h 93% 0.00in /  0mm
08:08 60.1 °F /  15.6 °C 58.1 °F /  14.5 °C 29.76in /  1007.7hPa West 4.0mph /  6.4km/h 7.0mph /  11.3km/h 93% 0.00in /  0mm
08:13 59.8 °F /  15.4 °C 57.5 °F /  14.2 °C 29.77in /  1008hPa WNW 8.0mph /  12.9km/h 11.0mph /  17.7km/h 92% 0.00in /  0mm
08:18 59.5 °F /  15.3 °C 57.2 °F /  14 °C 29.77in /  1008hPa WNW 8.0mph /  12.9km/h 11.0mph /  17.7km/h 92% 0.00in /  0mm
08:24 59.1 °F /  15.1 °C 56.8 °F /  13.8 °C 29.78in /  1008.4hPa WNW 11.0mph /  17.7km/h 11.0mph /  17.7km/h 92% 0.00in /  0mm
08:29 59.0 °F /  15 °C 56.4 °F /  13.6 °C 29.78in /  1008.4hPa WNW 11.0mph /  17.7km/h 13.0mph /  20.9km/h 91% 0.00in /  0mm
08:34 58.9 °F /  14.9 °C 56.6 °F /  13.7 °C 29.78in /  1008.4hPa NW 7.0mph /  11.3km/h 13.0mph /  20.9km/h 92% 0.00in /  0mm
08:39 58.8 °F /  14.9 °C 56.2 °F /  13.4 °C 29.78in /  1008.4hPa WNW 8.0mph /  12.9km/h 14.0mph /  22.5km/h 91% 0.00in /  0mm
08:44 58.6 °F /  14.8 °C 56.0 °F /  13.3 °C 29.79in /  1008.7hPa WNW 11.0mph /  17.7km/h 11.0mph /  17.7km/h 91% 0.00in /  0mm
08:49 58.4 °F /  14.7 °C 55.8 °F /  13.2 °C 29.79in /  1008.7hPa WNW 6.0mph /  9.7km/h 11.0mph /  17.7km/h 91% 0.00in /  0mm
08:54 58.4 °F /  14.7 °C 55.8 °F /  13.2 °C 29.80in /  1009hPa WNW 7.0mph /  11.3km/h 11.0mph /  17.7km/h 91% 0.00in /  0mm
08:59 58.2 °F /  14.6 °C 55.3 °F /  12.9 °C 29.80in /  1009hPa West 4.0mph /  6.4km/h 12.0mph /  19.3km/h 90% 0.00in /  0mm
09:04 57.9 °F /  14.4 °C 55.0 °F /  12.8 °C 29.81in /  1009.4hPa WSW 9.0mph /  14.5km/h 9.0mph /  14.5km/h 90% 0.00in /  0mm
09:09 57.6 °F /  14.2 °C 54.7 °F /  12.6 °C 29.81in /  1009.4hPa WNW 4.0mph /  6.4km/h 13.0mph /  20.9km/h 90% 0.00in /  0mm
09:14 57.6 °F /  14.2 °C 55.0 °F /  12.8 °C 29.81in /  1009.4hPa WNW 6.0mph /  9.7km/h 10.0mph /  16.1km/h 91% 0.00in /  0mm
09:19 57.5 °F /  14.2 °C 54.9 °F /  12.7 °C 29.81in /  1009.4hPa NW 10.0mph /  16.1km/h 10.0mph /  16.1km/h 91% 0.00in /  0mm
09:24 57.8 °F /  14.3 °C 54.9 °F /  12.7 °C 29.81in /  1009.4hPa NW 10.0mph /  16.1km/h 12.0mph /  19.3km/h 90% 0.00in /  0mm
09:29 57.8 °F /  14.3 °C 54.9 °F /  12.7 °C 29.81in /  1009.4hPa West 4.0mph /  6.4km/h 13.0mph /  20.9km/h 90% 0.00in /  0mm
09:34 58.3 °F /  14.6 °C 54.8 °F /  12.7 °C 29.81in /  1009.4hPa WNW 8.0mph /  12.9km/h 11.0mph /  17.7km/h 88% 0.00in /  0mm
09:39 58.4 °F /  14.7 °C 54.5 °F /  12.5 °C 29.81in /  1009.4hPa West 6.0mph /  9.7km/h 10.0mph /  16.1km/h 87% 0.00in /  0mm
09:44 58.2 °F /  14.6 °C 54.7 °F /  12.6 °C 29.82in /  1009.7hPa NW 7.0mph /  11.3km/h 10.0mph /  16.1km/h 88% 0.00in /  0mm
09:49 58.1 °F /  14.5 °C 54.3 °F /  12.4 °C 29.82in /  1009.7hPa NW 6.0mph /  9.7km/h 9.0mph /  14.5km/h 87% 0.00in /  0mm
09:54 58.7 °F /  14.8 °C 54.8 °F /  12.7 °C 29.82in /  1009.7hPa NW 8.0mph /  12.9km/h 12.0mph /  19.3km/h 87% 0.00in /  0mm
09:59 59.3 °F /  15.2 °C 55.1 °F /  12.8 °C 29.82in /  1009.7hPa WNW 4.0mph /  6.4km/h 12.0mph /  19.3km/h 86% 0.00in /  0mm
10:04 60.2 °F /  15.7 °C 55.3 °F /  12.9 °C 29.82in /  1009.7hPa NW 12.0mph /  19.3km/h 12.0mph /  19.3km/h 84% 0.00in /  0mm
10:09 60.4 °F /  15.8 °C 54.9 °F /  12.7 °C 29.82in /  1009.7hPa WNW 8.0mph /  12.9km/h 12.0mph /  19.3km/h 82% 0.00in /  0mm
10:14 61.0 °F /  16.1 °C 55.8 °F /  13.2 °C 29.82in /  1009.7hPa NW 8.0mph /  12.9km/h 14.0mph /  22.5km/h 83% 0.00in /  0mm
10:19 60.3 °F /  15.7 °C 54.8 °F /  12.7 °C 29.82in /  1009.7hPa NW 6.0mph /  9.7km/h 14.0mph /  22.5km/h 82% 0.00in /  0mm
10:24 60.0 °F /  15.6 °C 55.2 °F /  12.9 °C 29.83in /  1010hPa NW 9.0mph /  14.5km/h 10.0mph /  16.1km/h 84% 0.00in /  0mm
10:29 60.1 °F /  15.6 °C 54.9 °F /  12.7 °C 29.83in /  1010hPa NW 10.0mph /  16.1km/h 10.0mph /  16.1km/h 83% 0.00in /  0mm
10:34 60.3 °F /  15.7 °C 53.8 °F /  12.1 °C 29.83in /  1010hPa NW 7.0mph /  11.3km/h 15.0mph /  24.1km/h 79% 0.00in /  0mm
10:39 60.5 °F /  15.8 °C 53.6 °F /  12 °C 29.83in /  1010hPa WNW 14.0mph /  22.5km/h 17.0mph /  27.4km/h 78% 0.00in /  0mm
10:44 60.4 °F /  15.8 °C 54.2 °F /  12.3 °C 29.83in /  1010hPa NW 10.0mph /  16.1km/h 12.0mph /  19.3km/h 80% 0.00in /  0mm
10:49 60.9 °F /  16.1 °C 54.3 °F /  12.4 °C 29.83in /  1010hPa NW 7.0mph /  11.3km/h 10.0mph /  16.1km/h 79% 0.00in /  0mm
10:54 60.8 °F /  16 °C 53.9 °F /  12.2 °C 29.83in /  1010hPa NW 8.0mph /  12.9km/h 11.0mph /  17.7km/h 78% 0.00in /  0mm
10:59 60.6 °F /  15.9 °C 53.4 °F /  11.9 °C 29.83in /  1010hPa West 7.0mph /  11.3km/h 11.0mph /  17.7km/h 77% 0.00in /  0mm
11:04 60.9 °F /  16.1 °C 53.3 °F /  11.8 °C 29.83in /  1010hPa NW 9.0mph /  14.5km/h 13.0mph /  20.9km/h 76% 0.00in /  0mm
11:09 61.0 °F /  16.1 °C 53.8 °F /  12.1 °C 29.83in /  1010hPa NW 9.0mph /  14.5km/h 14.0mph /  22.5km/h 77% 0.00in /  0mm
11:14 60.7 °F /  15.9 °C 53.5 °F /  11.9 °C 29.83in /  1010hPa NW 10.0mph /  16.1km/h 12.0mph /  19.3km/h 77% 0.00in /  0mm
11:19 61.1 °F /  16.2 °C 54.2 °F /  12.3 °C 29.83in /  1010hPa WNW 6.0mph /  9.7km/h 8.0mph /  12.9km/h 78% 0.00in /  0mm
11:24 62.0 °F /  16.7 °C 54.4 °F /  12.4 °C 29.83in /  1010hPa WNW 7.0mph /  11.3km/h 9.0mph /  14.5km/h 76% 0.00in /  0mm
11:29 61.6 °F /  16.4 °C 54.0 °F /  12.2 °C 29.84in /  1010.4hPa WSW 7.0mph /  11.3km/h 9.0mph /  14.5km/h 76% 0.00in /  0mm
11:34 61.6 °F /  16.4 °C 54.3 °F /  12.4 °C 29.84in /  1010.4hPa NW 7.0mph /  11.3km/h 8.0mph /  12.9km/h 77% 0.00in /  0mm
11:40 61.4 °F /  16.3 °C 53.0 °F /  11.7 °C 29.84in /  1010.4hPa NW 9.0mph /  14.5km/h 10.0mph /  16.1km/h 74% 0.00in /  0mm
11:45 61.5 °F /  16.4 °C 53.9 °F /  12.2 °C 29.84in /  1010.4hPa WNW 7.0mph /  11.3km/h 11.0mph /  17.7km/h 76% 0.00in /  0mm
11:50 61.2 °F /  16.2 °C 52.9 °F /  11.6 °C 29.84in /  1010.4hPa West 5.0mph /  8km/h 11.0mph /  17.7km/h 74% 0.00in /  0mm
11:55 61.9 °F /  16.6 °C 53.9 °F /  12.2 °C 29.85in /  1010.7hPa WNW 6.0mph /  9.7km/h 11.0mph /  17.7km/h 75% 0.00in /  0mm
12:00 62.0 °F /  16.7 °C 52.9 °F /  11.6 °C 29.85in /  1010.7hPa WNW 10.0mph /  16.1km/h 16.0mph /  25.7km/h 72% 0.00in /  0mm
12:05 61.6 °F /  16.4 °C 53.6 °F /  12 °C 29.85in /  1010.7hPa WNW 6.0mph /  9.7km/h 12.0mph /  19.3km/h 75% 0.00in /  0mm
12:10 61.6 °F /  16.4 °C 53.6 °F /  12 °C 29.85in /  1010.7hPa WNW 9.0mph /  14.5km/h 12.0mph /  19.3km/h 75% 0.00in /  0mm
12:15 61.7 °F /  16.5 °C 53.7 °F /  12.1 °C 29.85in /  1010.7hPa West 5.0mph /  8km/h 12.0mph /  19.3km/h 75% 0.00in /  0mm
12:20 62.3 °F /  16.8 °C 53.5 °F /  11.9 °C 29.85in /  1010.7hPa NW 5.0mph /  8km/h 12.0mph /  19.3km/h 73% 0.00in /  0mm
12:25 62.4 °F /  16.9 °C 54.4 °F /  12.4 °C 29.85in /  1010.7hPa West 8.0mph /  12.9km/h 12.0mph /  19.3km/h 75% 0.00in /  0mm
12:30 61.8 °F /  16.6 °C 53.4 °F /  11.9 °C 29.86in /  1011.1hPa NW 6.0mph /  9.7km/h 14.0mph /  22.5km/h 74% 0.00in /  0mm
12:35 61.0 °F /  16.1 °C 52.7 °F /  11.5 °C 29.86in /  1011.1hPa WNW 9.0mph /  14.5km/h 13.0mph /  20.9km/h 74% 0.00in /  0mm
12:40 60.6 °F /  15.9 °C 53.7 °F /  12.1 °C 29.86in /  1011.1hPa NW 5.0mph /  8km/h 14.0mph /  22.5km/h 78% 0.00in /  0mm
12:45 61.0 °F /  16.1 °C 54.5 °F /  12.5 °C 29.86in /  1011.1hPa WNW 13.0mph /  20.9km/h 13.0mph /  20.9km/h 79% 0.00in /  0mm
12:50 61.0 °F /  16.1 °C 52.7 °F /  11.5 °C 29.86in /  1011.1hPa West 10.0mph /  16.1km/h 13.0mph /  20.9km/h 74% 0.00in /  0mm
12:55 61.1 °F /  16.2 °C 53.1 °F /  11.7 °C 29.86in /  1011.1hPa WNW 9.0mph /  14.5km/h 11.0mph /  17.7km/h 75% 0.00in /  0mm
13:00 60.8 °F /  16 °C 52.8 °F /  11.6 °C 29.86in /  1011.1hPa West 9.0mph /  14.5km/h 14.0mph /  22.5km/h 75% 0.00in /  0mm
13:05 60.6 °F /  15.9 °C 52.6 °F /  11.4 °C 29.86in /  1011.1hPa WNW 6.0mph /  9.7km/h 11.0mph /  17.7km/h 75% 0.00in /  0mm
13:10 60.4 °F /  15.8 °C 52.8 °F /  11.6 °C 29.87in /  1011.4hPa WNW 8.0mph /  12.9km/h 13.0mph /  20.9km/h 76% 0.00in /  0mm
13:15 60.1 °F /  15.6 °C 52.9 °F /  11.6 °C 29.87in /  1011.4hPa NW 3.0mph /  4.8km/h 12.0mph /  19.3km/h 77% 0.00in /  0mm
13:20 60.2 °F /  15.7 °C 53.3 °F /  11.8 °C 29.87in /  1011.4hPa WNW 8.0mph /  12.9km/h 11.0mph /  17.7km/h 78% 0.00in /  0mm
13:25 59.8 °F /  15.4 °C 52.9 °F /  11.6 °C 29.87in /  1011.4hPa NW 6.0mph /  9.7km/h 9.0mph /  14.5km/h 78% 0.00in /  0mm
13:30 59.7 °F /  15.4 °C 53.2 °F /  11.8 °C 29.87in /  1011.4hPa WNW 8.0mph /  12.9km/h 10.0mph /  16.1km/h 79% 0.00in /  0mm
13:35 59.6 °F /  15.3 °C 53.4 °F /  11.9 °C 29.87in /  1011.4hPa WNW 6.0mph /  9.7km/h 10.0mph /  16.1km/h 80% 0.00in /  0mm
13:40 59.9 °F /  15.5 °C 53.4 °F /  11.9 °C 29.87in /  1011.4hPa WNW 9.0mph /  14.5km/h 11.0mph /  17.7km/h 79% 0.00in /  0mm
13:45 59.9 °F /  15.5 °C 53.7 °F /  12.1 °C 29.87in /  1011.4hPa NW 5.0mph /  8km/h 7.0mph /  11.3km/h 80% 0.00in /  0mm
13:50 60.2 °F /  15.7 °C 53.3 °F /  11.8 °C 29.87in /  1011.4hPa West 7.0mph /  11.3km/h 11.0mph /  17.7km/h 78% 0.00in /  0mm
13:55 60.8 °F /  16 °C 54.3 °F /  12.4 °C 29.87in /  1011.4hPa WSW 8.0mph /  12.9km/h 10.0mph /  16.1km/h 79% 0.00in /  0mm
14:00 61.1 °F /  16.2 °C 53.5 °F /  11.9 °C 29.87in /  1011.4hPa WNW 7.0mph /  11.3km/h 10.0mph /  16.1km/h 76% 0.00in /  0mm
14:05 61.1 °F /  16.2 °C 53.1 °F /  11.7 °C 29.86in /  1011.1hPa NW 5.0mph /  8km/h 12.0mph /  19.3km/h 75% 0.00in /  0mm
14:10 61.1 °F /  16.2 °C 53.5 °F /  11.9 °C 29.86in /  1011.1hPa NW 6.0mph /  9.7km/h 10.0mph /  16.1km/h 76% 0.00in /  0mm
14:15 60.8 °F /  16 °C 53.9 °F /  12.2 °C 29.87in /  1011.4hPa West 8.0mph /  12.9km/h 11.0mph /  17.7km/h 78% 0.00in /  0mm
14:20 60.7 °F /  15.9 °C 54.2 °F /  12.3 °C 29.86in /  1011.1hPa NW 6.0mph /  9.7km/h 11.0mph /  17.7km/h 79% 0.00in /  0mm
14:25 60.8 °F /  16 °C 54.3 °F /  12.4 °C 29.87in /  1011.4hPa WNW 6.0mph /  9.7km/h 8.0mph /  12.9km/h 79% 0.00in /  0mm
14:30 61.5 °F /  16.4 °C 55.3 °F /  12.9 °C 29.86in /  1011.1hPa WNW 8.0mph /  12.9km/h 8.0mph /  12.9km/h 80% 0.00in /  0mm
14:35 62.4 °F /  16.9 °C 55.5 °F /  13.1 °C 29.86in /  1011.1hPa West 8.0mph /  12.9km/h 9.0mph /  14.5km/h 78% 0.00in /  0mm
14:41 62.4 °F /  16.9 °C 54.0 °F /  12.2 °C 29.86in /  1011.1hPa NW 8.0mph /  12.9km/h 9.0mph /  14.5km/h 74% 0.00in /  0mm
14:46 62.2 °F /  16.8 °C 53.5 °F /  11.9 °C 29.86in /  1011.1hPa NNW 8.0mph /  12.9km/h 8.0mph /  12.9km/h 73% 0.00in /  0mm
14:51 61.9 °F /  16.6 °C 53.5 °F /  11.9 °C 29.86in /  1011.1hPa WNW 7.0mph /  11.3km/h 10.0mph /  16.1km/h 74% 0.00in /  0mm
14:56 61.7 °F /  16.5 °C 54.1 °F /  12.3 °C 29.86in /  1011.1hPa WNW 5.0mph /  8km/h 10.0mph /  16.1km/h 76% 0.00in /  0mm
15:01 61.8 °F /  16.6 °C 54.5 °F /  12.5 °C 29.86in /  1011.1hPa NW 7.0mph /  11.3km/h 11.0mph /  17.7km/h 77% 0.00in /  0mm
15:06 61.4 °F /  16.3 °C 54.1 °F /  12.3 °C 29.87in /  1011.4hPa WNW 4.0mph /  6.4km/h 10.0mph /  16.1km/h 77% 0.00in /  0mm
15:11 61.6 °F /  16.4 °C 54.7 °F /  12.6 °C 29.87in /  1011.4hPa WNW 5.0mph /  8km/h 10.0mph /  16.1km/h 78% 0.00in /  0mm
15:16 61.9 °F /  16.6 °C 54.6 °F /  12.6 °C 29.87in /  1011.4hPa WNW 6.0mph /  9.7km/h 10.0mph /  16.1km/h 77% 0.00in /  0mm
15:21 62.4 °F /  16.9 °C 55.5 °F /  13.1 °C 29.87in /  1011.4hPa NW 6.0mph /  9.7km/h 11.0mph /  17.7km/h 78% 0.00in /  0mm
15:26 62.4 °F /  16.9 °C 54.8 °F /  12.7 °C 29.87in /  1011.4hPa West 5.0mph /  8km/h 10.0mph /  16.1km/h 76% 0.00in /  0mm
15:31 62.0 °F /  16.7 °C 54.7 °F /  12.6 °C 29.87in /  1011.4hPa NW 5.0mph /  8km/h 9.0mph /  14.5km/h 77% 0.00in /  0mm
15:36 61.9 °F /  16.6 °C 54.3 °F /  12.4 °C 29.87in /  1011.4hPa WNW 4.0mph /  6.4km/h 10.0mph /  16.1km/h 76% 0.00in /  0mm
15:41 61.6 °F /  16.4 °C 54.3 °F /  12.4 °C 29.87in /  1011.4hPa NW 4.0mph /  6.4km/h 7.0mph /  11.3km/h 77% 0.00in /  0mm
15:46 61.3 °F /  16.3 °C 54.0 °F /  12.2 °C 29.87in /  1011.4hPa WNW 3.0mph /  4.8km/h 8.0mph /  12.9km/h 77% 0.00in /  0mm
15:51 61.5 °F /  16.4 °C 54.2 °F /  12.3 °C 29.88in /  1011.7hPa WNW 10.0mph /  16.1km/h 11.0mph /  17.7km/h 77% 0.00in /  0mm
15:56 61.6 °F /  16.4 °C 54.0 °F /  12.2 °C 29.88in /  1011.7hPa WNW 5.0mph /  8km/h 9.0mph /  14.5km/h 76% 0.00in /  0mm
16:01 61.9 °F /  16.6 °C 54.3 °F /  12.4 °C 29.88in /  1011.7hPa West 12.0mph /  19.3km/h 12.0mph /  19.3km/h 76% 0.00in /  0mm
16:06 61.8 °F /  16.6 °C 53.8 °F /  12.1 °C 29.88in /  1011.7hPa WNW 8.0mph /  12.9km/h 10.0mph /  16.1km/h 75% 0.00in /  0mm
16:11 62.2 °F /  16.8 °C 55.3 °F /  12.9 °C 29.87in /  1011.4hPa NNW 4.0mph /  6.4km/h 7.0mph /  11.3km/h 78% 0.00in /  0mm
16:16 62.6 °F /  17 °C 54.2 °F /  12.3 °C 29.87in /  1011.4hPa NNW 9.0mph /  14.5km/h 9.0mph /  14.5km/h 74% 0.00in /  0mm
16:21 62.5 °F /  16.9 °C 54.8 °F /  12.7 °C 29.87in /  1011.4hPa WNW 6.0mph /  9.7km/h 8.0mph /  12.9km/h 76% 0.00in /  0mm
16:26 62.2 °F /  16.8 °C 54.2 °F /  12.3 °C 29.87in /  1011.4hPa WNW 9.0mph /  14.5km/h 9.0mph /  14.5km/h 75% 0.00in /  0mm
16:31 62.1 °F /  16.7 °C 54.5 °F /  12.5 °C 29.87in /  1011.4hPa NNW 4.0mph /  6.4km/h 8.0mph /  12.9km/h 76% 0.00in /  0mm
16:36 62.2 °F /  16.8 °C 53.8 °F /  12.1 °C 29.87in /  1011.4hPa WNW 8.0mph /  12.9km/h 10.0mph /  16.1km/h 74% 0.00in /  0mm
16:41 61.8 °F /  16.6 °C 54.2 °F /  12.3 °C 29.87in /  1011.4hPa NW 5.0mph /  8km/h 7.0mph /  11.3km/h 76% 0.00in /  0mm
16:46 61.8 °F /  16.6 °C 53.4 °F /  11.9 °C 29.88in /  1011.7hPa WNW 12.0mph /  19.3km/h 12.0mph /  19.3km/h 74% 0.00in /  0mm
16:51 61.5 °F /  16.4 °C 53.5 °F /  11.9 °C 29.88in /  1011.7hPa WNW 6.0mph /  9.7km/h 9.0mph /  14.5km/h 75% 0.00in /  0mm
16:56 62.0 °F /  16.7 °C 54.4 °F /  12.4 °C 29.87in /  1011.4hPa WNW 6.0mph /  9.7km/h 9.0mph /  14.5km/h 76% 0.00in /  0mm
17:01 63.0 °F /  17.2 °C 54.6 °F /  12.6 °C 29.87in /  1011.4hPa NW 8.0mph /  12.9km/h 9.0mph /  14.5km/h 74% 0.00in /  0mm
17:06 63.0 °F /  17.2 °C 53.5 °F /  11.9 °C 29.87in /  1011.4hPa NW 7.0mph /  11.3km/h 12.0mph /  19.3km/h 71% 0.00in /  0mm
17:11 63.0 °F /  17.2 °C 53.5 °F /  11.9 °C 29.87in /  1011.4hPa West 4.0mph /  6.4km/h 7.0mph /  11.3km/h 71% 0.00in /  0mm
17:17 62.9 °F /  17.2 °C 53.8 °F /  12.1 °C 29.86in /  1011.1hPa WNW 6.0mph /  9.7km/h 7.0mph /  11.3km/h 72% 0.00in /  0mm
17:22 63.0 °F /  17.2 °C 53.8 °F /  12.1 °C 29.87in /  1011.4hPa WNW 6.0mph /  9.7km/h 8.0mph /  12.9km/h 72% 0.00in /  0mm
17:27 63.0 °F /  17.2 °C 53.8 °F /  12.1 °C 29.87in /  1011.4hPa NNW 8.0mph /  12.9km/h 9.0mph /  14.5km/h 72% 0.00in /  0mm
17:32 63.4 °F /  17.4 °C 54.6 °F /  12.6 °C 29.87in /  1011.4hPa WNW 4.0mph /  6.4km/h 8.0mph /  12.9km/h 73% 0.00in /  0mm
17:37 63.5 °F /  17.5 °C 53.9 °F /  12.2 °C 29.87in /  1011.4hPa WNW 8.0mph /  12.9km/h 10.0mph /  16.1km/h 71% 0.00in /  0mm
17:42 64.1 °F /  17.8 °C 54.5 °F /  12.5 °C 29.87in /  1011.4hPa NNW 7.0mph /  11.3km/h 10.0mph /  16.1km/h 71% 0.00in /  0mm
17:47 63.8 °F /  17.7 °C 53.0 °F /  11.7 °C 29.87in /  1011.4hPa NNW 2.0mph /  3.2km/h 7.0mph /  11.3km/h 68% 0.00in /  0mm
17:52 63.7 °F /  17.6 °C 53.7 °F /  12.1 °C 29.87in /  1011.4hPa NW 4.0mph /  6.4km/h 7.0mph /  11.3km/h 70% 0.00in /  0mm
17:57 63.8 °F /  17.7 °C 53.0 °F /  11.7 °C 29.87in /  1011.4hPa NW 4.0mph /  6.4km/h 7.0mph /  11.3km/h 68% 0.00in /  0mm
18:02 64.3 °F /  17.9 °C 53.1 °F /  11.7 °C 29.87in /  1011.4hPa NNW 9.0mph /  14.5km/h 9.0mph /  14.5km/h 67% 0.00in /  0mm
18:07 64.5 °F /  18.1 °C 52.9 °F /  11.6 °C 29.87in /  1011.4hPa NW 6.0mph /  9.7km/h 7.0mph /  11.3km/h 66% 0.00in /  0mm
18:12 64.3 °F /  17.9 °C 52.3 °F /  11.3 °C 29.87in /  1011.4hPa NW 7.0mph /  11.3km/h 9.0mph /  14.5km/h 65% 0.00in /  0mm
18:17 63.7 °F /  17.6 °C 53.0 °F /  11.7 °C 29.88in /  1011.7hPa WNW 7.0mph /  11.3km/h 8.0mph /  12.9km/h 68% 0.00in /  0mm
18:22 63.4 °F /  17.4 °C 53.1 °F /  11.7 °C 29.88in /  1011.7hPa WNW 2.0mph /  3.2km/h 6.0mph /  9.7km/h 69% 0.00in /  0mm
18:27 63.2 °F /  17.3 °C 52.9 °F /  11.6 °C 29.88in /  1011.7hPa NW 3.0mph /  4.8km/h 6.0mph /  9.7km/h 69% 0.00in /  0mm
18:32 63.1 °F /  17.3 °C 53.2 °F /  11.8 °C 29.87in /  1011.4hPa WNW 2.0mph /  3.2km/h 5.0mph /  8km/h 70% 0.00in /  0mm
18:37 63.4 °F /  17.4 °C 53.1 °F /  11.7 °C 29.88in /  1011.7hPa NW 2.0mph /  3.2km/h 3.0mph /  4.8km/h 69% 0.00in /  0mm
18:42 64.1 °F /  17.8 °C 54.1 °F /  12.3 °C 29.88in /  1011.7hPa WNW 4.0mph /  6.4km/h 5.0mph /  8km/h 70% 0.00in /  0mm
18:47 64.1 °F /  17.8 °C 53.7 °F /  12.1 °C 29.88in /  1011.7hPa WNW 5.0mph /  8km/h 8.0mph /  12.9km/h 69% 0.00in /  0mm
18:52 63.4 °F /  17.4 °C 52.7 °F /  11.5 °C 29.88in /  1011.7hPa NW 4.0mph /  6.4km/h 6.0mph /  9.7km/h 68% 0.00in /  0mm
18:57 63.5 °F /  17.5 °C 53.5 °F /  11.9 °C 29.87in /  1011.4hPa WNW 3.0mph /  4.8km/h 4.0mph /  6.4km/h 70% 0.00in /  0mm
19:02 63.9 °F /  17.7 °C 53.9 °F /  12.2 °C 29.87in /  1011.4hPa NNW 3.0mph /  4.8km/h 4.0mph /  6.4km/h 70% 0.00in /  0mm
19:07 64.4 °F /  18 °C 54.0 °F /  12.2 °C 29.88in /  1011.7hPa NW 3.0mph /  4.8km/h 4.0mph /  6.4km/h 69% 0.00in /  0mm
19:12 64.5 °F /  18.1 °C 54.5 °F /  12.5 °C 29.88in /  1011.7hPa NNW 4.0mph /  6.4km/h 6.0mph /  9.7km/h 70% 0.00in /  0mm
19:17 64.2 °F /  17.9 °C 53.4 °F /  11.9 °C 29.88in /  1011.7hPa West 4.0mph /  6.4km/h 7.0mph /  11.3km/h 68% 0.00in /  0mm
19:22 64.4 °F /  18 °C 54.4 °F /  12.4 °C 29.88in /  1011.7hPa NW 2.0mph /  3.2km/h 6.0mph /  9.7km/h 70% 0.00in /  0mm
19:27 64.5 °F /  18.1 °C 54.1 °F /  12.3 °C 29.88in /  1011.7hPa WNW 2.0mph /  3.2km/h 5.0mph /  8km/h 69% 0.00in /  0mm
19:32 64.7 °F /  18.2 °C 54.3 °F /  12.4 °C 29.88in /  1011.7hPa WNW 2.0mph /  3.2km/h 4.0mph /  6.4km/h 69% 0.00in /  0mm
19:37 64.7 °F /  18.2 °C 53.9 °F /  12.2 °C 29.88in /  1011.7hPa WNW 2.0mph /  3.2km/h 4.0mph /  6.4km/h 68% 0.00in /  0mm
19:42 64.6 °F /  18.1 °C 53.8 °F /  12.1 °C 29.88in /  1011.7hPa WNW 5.0mph /  8km/h 6.0mph /  9.7km/h 68% 0.00in /  0mm
19:47 64.4 °F /  18 °C 54.0 °F /  12.2 °C 29.88in /  1011.7hPa NW 5.0mph /  8km/h 5.0mph /  8km/h 69% 0.00in /  0mm
19:53 64.0 °F /  17.8 °C 54.0 °F /  12.2 °C 29.88in /  1011.7hPa NW 2.0mph /  3.2km/h 4.0mph /  6.4km/h 70% 0.00in /  0mm
19:58 63.9 °F /  17.7 °C 54.3 °F /  12.4 °C 29.88in /  1011.7hPa NW 2.0mph /  3.2km/h 3.0mph /  4.8km/h 71% 0.00in /  0mm
20:03 64.3 °F /  17.9 °C 54.7 °F /  12.6 °C 29.88in /  1011.7hPa WNW 1.0mph /  1.6km/h 2.0mph /  3.2km/h 71% 0.00in /  0mm
20:08 64.7 °F /  18.2 °C 55.1 °F /  12.8 °C 29.87in /  1011.4hPa East 2.0mph /  3.2km/h 2.0mph /  3.2km/h 71% 0.00in /  0mm
20:13 64.6 °F /  18.1 °C 54.6 °F /  12.6 °C 29.86in /  1011.1hPa East 1.0mph /  1.6km/h 2.0mph /  3.2km/h 70% 0.00in /  0mm
20:18 64.6 °F /  18.1 °C 53.8 °F /  12.1 °C 29.87in /  1011.4hPa Calm   1.0mph /  1.6km/h 68% 0.00in /  0mm
20:23 65.0 °F /  18.3 °C 54.6 °F /  12.6 °C 29.88in /  1011.7hPa NW 1.0mph /  1.6km/h 1.0mph /  1.6km/h 69% 0.00in /  0mm
20:28 64.3 °F /  17.9 °C 55.5 °F /  13.1 °C 29.89in /  1012.1hPa NW 1.0mph /  1.6km/h 2.0mph /  3.2km/h 73% 0.00in /  0mm
20:33 63.5 °F /  17.5 °C 55.1 °F /  12.8 °C 29.89in /  1012.1hPa Calm     74% 0.00in /  0mm
20:38 63.3 °F /  17.4 °C 54.9 °F /  12.7 °C 29.89in /  1012.1hPa WNW 1.0mph /  1.6km/h 1.0mph /  1.6km/h 74% 0.00in /  0mm
20:43 62.5 °F /  16.9 °C 54.5 °F /  12.5 °C 29.89in /  1012.1hPa Calm   1.0mph /  1.6km/h 75% 0.00in /  0mm
20:48 61.8 °F /  16.6 °C 54.5 °F /  12.5 °C 29.89in /  1012.1hPa Calm     77% 0.00in /  0mm
20:53 61.1 °F /  16.2 °C 54.5 °F /  12.5 °C 29.89in /  1012.1hPa Calm     79% 0.00in /  0mm
20:58 60.3 °F /  15.7 °C 54.1 °F /  12.3 °C 29.90in /  1012.4hPa WNW 1.0mph /  1.6km/h 1.0mph /  1.6km/h 80% 0.00in /  0mm
21:03 59.5 °F /  15.3 °C 54.3 °F /  12.4 °C 29.90in /  1012.4hPa Calm     83% 0.00in /  0mm
21:08 58.9 °F /  14.9 °C 54.4 °F /  12.4 °C 29.90in /  1012.4hPa Calm   1.0mph /  1.6km/h 85% 0.00in /  0mm
21:13 58.3 °F /  14.6 °C 54.1 °F /  12.3 °C 29.90in /  1012.4hPa Calm   1.0mph /  1.6km/h 86% 0.00in /  0mm
21:18 57.9 °F /  14.4 °C 54.4 °F /  12.4 °C 29.90in /  1012.4hPa Calm   1.0mph /  1.6km/h 88% 0.00in /  0mm
21:23 57.6 °F /  14.2 °C 54.1 °F /  12.3 °C 29.89in /  1012.1hPa Calm     88% 0.00in /  0mm
21:28 57.6 °F /  14.2 °C 53.8 °F /  12.1 °C 29.90in /  1012.4hPa Calm     87% 0.00in /  0mm
21:33 57.2 °F /  14 °C 53.7 °F /  12.1 °C 29.90in /  1012.4hPa Calm     88% 0.00in /  0mm
21:38 56.7 °F /  13.7 °C 53.5 °F /  11.9 °C 29.90in /  1012.4hPa Calm     89% 0.00in /  0mm
21:43 56.3 °F /  13.5 °C 53.4 °F /  11.9 °C 29.89in /  1012.1hPa Calm     90% 0.00in /  0mm
21:48 56.1 °F /  13.4 °C 53.2 °F /  11.8 °C 29.90in /  1012.4hPa Calm     90% 0.00in /  0mm
21:53 56.1 °F /  13.4 °C 53.5 °F /  11.9 °C 29.90in /  1012.4hPa Calm     91% 0.00in /  0mm
21:58 55.9 °F /  13.3 °C 53.0 °F /  11.7 °C 29.90in /  1012.4hPa Calm     90% 0.00in /  0mm
22:03 55.5 °F /  13.1 °C 52.9 °F /  11.6 °C 29.89in /  1012.1hPa Calm     91% 0.00in /  0mm
22:08 55.8 °F /  13.2 °C 53.5 °F /  11.9 °C 29.89in /  1012.1hPa SE 1.0mph /  1.6km/h 1.0mph /  1.6km/h 92% 0.00in /  0mm
22:13 55.9 °F /  13.3 °C 53.3 °F /  11.8 °C 29.89in /  1012.1hPa Calm     91% 0.00in /  0mm
22:18 55.6 °F /  13.1 °C 53.0 °F /  11.7 °C 29.89in /  1012.1hPa Calm     91% 0.00in /  0mm
22:23 55.2 °F /  12.9 °C 52.9 °F /  11.6 °C 29.90in /  1012.4hPa Calm     92% 0.00in /  0mm
22:29 55.0 °F /  12.8 °C 53.0 °F /  11.7 °C 29.90in /  1012.4hPa SE 1.0mph /  1.6km/h 1.0mph /  1.6km/h 93% 0.00in /  0mm
22:34 55.1 °F /  12.8 °C 53.1 °F /  11.7 °C 29.90in /  1012.4hPa Calm   1.0mph /  1.6km/h 93% 0.00in /  0mm
22:39 55.0 °F /  12.8 °C 53.0 °F /  11.7 °C 29.90in /  1012.4hPa Calm     93% 0.00in /  0mm
22:44 54.7 °F /  12.6 °C 52.7 °F /  11.5 °C 29.90in /  1012.4hPa Calm     93% 0.00in /  0mm
22:49 54.6 °F /  12.6 °C 52.6 °F /  11.4 °C 29.91in /  1012.8hPa Calm     93% 0.00in /  0mm
22:54 54.6 °F /  12.6 °C 52.9 °F /  11.6 °C 29.91in /  1012.8hPa Calm     94% 0.00in /  0mm
22:59 54.5 °F /  12.5 °C 52.8 °F /  11.6 °C 29.91in /  1012.8hPa Calm     94% 0.00in /  0mm
23:04 54.7 °F /  12.6 °C 53.0 °F /  11.7 °C 29.91in /  1012.8hPa Calm   1.0mph /  1.6km/h 94% 0.00in /  0mm
23:09 54.6 °F /  12.6 °C 52.9 °F /  11.6 °C 29.91in /  1012.8hPa North 1.0mph /  1.6km/h 1.0mph /  1.6km/h 94% 0.00in /  0mm
23:14 54.6 °F /  12.6 °C 52.9 °F /  11.6 °C 29.91in /  1012.8hPa Calm     94% 0.00in /  0mm
23:19 54.7 °F /  12.6 °C 53.0 °F /  11.7 °C 29.91in /  1012.8hPa Calm   1.0mph /  1.6km/h 94% 0.00in /  0mm
23:24 54.6 °F /  12.6 °C 52.9 °F /  11.6 °C 29.91in /  1012.8hPa Calm     94% 0.00in /  0mm
23:29 54.3 °F /  12.4 °C 52.6 °F /  11.4 °C 29.92in /  1013.1hPa Calm     94% 0.00in /  0mm
23:34 54.3 °F /  12.4 °C 52.6 °F /  11.4 °C 29.92in /  1013.1hPa Calm     94% 0.00in /  0mm
23:39 54.3 °F /  12.4 °C 52.6 °F /  11.4 °C 29.92in /  1013.1hPa Calm   1.0mph /  1.6km/h 94% 0.00in /  0mm
23:44 54.3 °F /  12.4 °C 52.6 °F /  11.4 °C 29.92in /  1013.1hPa Calm   1.0mph /  1.6km/h 94% 0.00in /  0mm
23:49 54.1 °F /  12.3 °C 52.4 °F /  11.3 °C 29.92in /  1013.1hPa Calm     94% 0.00in /  0mm
23:54 54.0 °F /  12.2 °C 52.3 °F /  11.3 °C 29.92in /  1013.1hPa Calm     94% 0.00in /  0mm
23:59 54.3 °F /  12.4 °C 52.9 °F /  11.6 °C 29.92in /  1013.1hPa Calm     95% 0.00in /  0mm
Compliments of Weather Underground